Time;durP1;ratioP1;P1;durP2;ratioP2;P2;SDS_P1;SDS_P2;PMS_P1;PMS_P2;Temp;Humidity;BMP_temperature;BMP_pressure;BME280_temperature;BME280_humidity;BME280_pressure;Samples;Min_cycle;Max_cycle;Signal;HPM_P1;HPM_P2
2021/12/25 00:01:20;;;;;;;10.30;7.50;;;-2.00;98.30;;;;;;4059871;28;20236;-81
2021/12/25 00:03:50;;;;;;;7.88;6.22;;;-2.00;98.30;;;;;;4092470;28;20594;-81
2021/12/25 00:05:56;;;;;;;6.55;5.53;;;-2.00;98.30;;;;;;4154821;28;20206;-81
2021/12/25 00:08:11;;;;;;;7.63;4.10;;;-2.00;98.30;;;;;;4166023;28;20234;-81
2021/12/25 00:10:21;;;;;;;6.15;3.80;;;-2.00;98.30;;;;;;4175611;28;20213;-80
2021/12/25 00:12:26;;;;;;;4.43;3.60;;;-2.00;98.30;;;;;;4181332;28;20229;-80
2021/12/25 00:14:30;;;;;;;5.20;3.50;;;-2.00;98.30;;;;;;4176999;28;20210;-80
2021/12/25 00:16:33;;;;;;;4.88;3.42;;;-2.00;98.30;;;;;;4176034;28;20219;-81
2021/12/25 00:18:38;;;;;;;5.55;3.42;;;-2.00;98.30;;;;;;4177698;28;20288;-81
2021/12/25 00:20:41;;;;;;;5.82;4.60;;;-2.10;98.30;;;;;;4179766;28;20297;-81
2021/12/25 00:22:44;;;;;;;5.57;3.95;;;-2.10;98.30;;;;;;4193502;22;20230;-77
2021/12/25 00:24:49;;;;;;;4.38;3.42;;;-2.10;98.30;;;;;;4172820;28;20219;-77
2021/12/25 00:26:57;;;;;;;5.18;3.95;;;-2.20;98.30;;;;;;4163598;28;20238;-77
2021/12/25 00:29:06;;;;;;;4.95;3.83;;;-2.20;98.30;;;;;;4173306;28;20229;-77
2021/12/25 00:31:23;;;;;;;11.70;7.70;;;-2.20;98.30;;;;;;4171658;28;20217;-77
2021/12/25 00:33:35;;;;;;;16.70;9.93;;;-2.30;98.30;;;;;;4145209;28;20674;-77
2021/12/25 00:35:38;;;;;;;14.05;9.05;;;-2.30;98.30;;;;;;4143495;28;20710;-77
2021/12/25 00:37:41;;;;;;;11.75;7.40;;;-2.30;98.30;;;;;;4162130;28;20215;-77
2021/12/25 00:39:44;;;;;;;9.43;6.82;;;-2.30;98.30;;;;;;4152052;28;20216;-77
2021/12/25 00:41:48;;;;;;;7.82;5.60;;;-2.20;98.30;;;;;;4152170;28;20776;-78
2021/12/25 00:43:52;;;;;;;7.22;5.55;;;-2.30;98.30;;;;;;4148922;28;20225;-77
2021/12/25 00:45:55;;;;;;;10.63;6.63;;;-2.30;98.30;;;;;;4155286;28;20215;-77
2021/12/25 00:47:58;;;;;;;10.60;7.47;;;-2.30;98.30;;;;;;4149360;28;20297;-77
2021/12/25 00:50:01;;;;;;;10.68;7.82;;;-2.30;98.30;;;;;;4147518;28;20211;-77
2021/12/25 00:52:04;;;;;;;12.75;8.55;;;-2.20;98.30;;;;;;4148888;28;20290;-77
2021/12/25 00:54:07;;;;;;;12.90;8.27;;;-2.20;98.30;;;;;;4161157;28;20207;-77
2021/12/25 00:56:11;;;;;;;9.45;7.28;;;-2.30;98.30;;;;;;4153062;28;20243;-77
2021/12/25 00:58:15;;;;;;;9.45;6.65;;;-2.30;98.30;;;;;;4146905;28;20580;-77
2021/12/25 01:00:18;;;;;;;10.93;7.53;;;-2.40;98.30;;;;;;4156659;28;20219;-77
2021/12/25 01:02:21;;;;;;;11.48;7.78;;;-2.40;98.30;;;;;;4150773;28;20223;-77
2021/12/25 01:04:25;;;;;;;8.32;6.85;;;-2.30;98.30;;;;;;4150893;28;20234;-77
2021/12/25 01:06:28;;;;;;;9.65;6.97;;;-2.40;98.30;;;;;;4148165;28;20763;-77
2021/12/25 01:08:31;;;;;;;9.75;6.57;;;-2.40;98.30;;;;;;4154426;28;20671;-77
2021/12/25 01:10:35;;;;;;;7.20;5.80;;;-2.40;98.30;;;;;;4159025;28;20222;-77
2021/12/25 01:12:51;;;;;;;11.27;7.63;;;-2.40;98.30;;;;;;4151570;28;20258;-77
2021/12/25 01:14:58;;;;;;;9.13;7.63;;;-2.40;98.30;;;;;;4144877;28;20214;-77
2021/12/25 01:19:42;;;;;;;8.52;6.45;;;-2.40;98.30;;;;;;4115991;28;20199;-77
2021/12/25 01:22:07;;;;;;;8.07;6.78;;;-2.30;98.30;;;;;;4153146;28;20240;-76
2021/12/25 01:29:16;;;;;;;9.02;6.60;;;-2.30;98.30;;;;;;4155201;28;20230;-77
2021/12/25 01:31:26;;;;;;;7.75;6.20;;;-2.40;98.30;;;;;;4154080;28;20214;-77
2021/12/25 01:33:55;;;;;;;7.65;6.72;;;-2.40;98.30;;;;;;4155820;28;20313;-77
2021/12/25 01:38:36;;;;;;;10.63;7.80;;;-2.40;98.30;;;;;;4153962;28;20214;-77
2021/12/25 01:40:54;;;;;;;9.70;7.15;;;-2.40;98.30;;;;;;4144748;28;20212;-77
2021/12/25 01:48:05;;;;;;;10.13;7.20;;;-2.50;98.30;;;;;;4148091;28;20218;-77
2021/12/25 01:50:57;;;;;;;12.40;6.70;;;-2.50;98.30;;;;;;4158005;28;20206;-77
2021/12/25 01:53:00;;;;;;;14.43;7.07;;;-2.60;98.30;;;;;;4155625;28;20707;-77
2021/12/25 01:55:09;;;;;;;9.80;6.85;;;-2.60;98.30;;;;;;4150497;28;20659;-77
2021/12/25 01:57:12;;;;;;;10.48;6.93;;;-2.50;98.30;;;;;;4150502;28;20199;-77
2021/12/25 01:59:15;;;;;;;9.55;6.68;;;-2.60;98.30;;;;;;4154246;28;20705;-77
2021/12/25 02:01:19;;;;;;;10.20;6.70;;;-2.60;98.30;;;;;;4154269;28;20223;-77
2021/12/25 02:03:26;;;;;;;8.80;6.70;;;-2.60;98.30;;;;;;4146561;28;20257;-77
2021/12/25 02:05:29;;;;;;;9.82;6.68;;;-2.60;98.30;;;;;;4155805;28;20293;-77
2021/12/25 02:07:52;;;;;;;8.13;6.38;;;-2.60;98.30;;;;;;4151599;28;20241;-77
2021/12/25 02:09:56;;;;;;;8.75;6.50;;;-2.50;98.30;;;;;;4151284;28;20670;-77
2021/12/25 02:12:00;;;;;;;10.13;6.55;;;-2.50;98.30;;;;;;4157916;28;20235;-77
2021/12/25 02:14:04;;;;;;;8.00;6.22;;;-2.40;98.30;;;;;;4152175;28;20212;-77
2021/12/25 02:16:13;;;;;;;9.13;6.88;;;-2.50;98.30;;;;;;4154582;28;20219;-77
2021/12/25 02:18:23;;;;;;;8.25;6.65;;;-2.50;98.30;;;;;;4141497;28;20219;-77
2021/12/25 02:20:34;;;;;;;7.18;6.22;;;-2.50;98.30;;;;;;4154016;28;20682;-77
2021/12/25 02:22:37;;;;;;;9.05;6.75;;;-2.50;98.30;;;;;;4150692;28;20243;-77
2021/12/25 02:24:40;;;;;;;10.75;6.95;;;-2.50;98.30;;;;;;4157718;28;20760;-77
2021/12/25 02:26:45;;;;;;;8.38;6.50;;;-2.50;98.30;;;;;;4152133;28;20208;-77
2021/12/25 02:28:48;;;;;;;8.20;6.80;;;-2.50;98.30;;;;;;4147095;28;20319;-77
2021/12/25 02:30:55;;;;;;;10.95;6.93;;;-2.50;98.30;;;;;;4148538;28;20208;-77
2021/12/25 02:32:58;;;;;;;8.88;7.05;;;-2.50;98.30;;;;;;4158330;28;20675;-78
2021/12/25 02:35:01;;;;;;;7.93;7.05;;;-2.60;98.30;;;;;;4156545;28;20211;-77
2021/12/25 02:37:06;;;;;;;10.52;7.25;;;-2.60;98.30;;;;;;4150491;28;20214;-77
2021/12/25 02:39:09;;;;;;;8.10;7.10;;;-2.60;98.30;;;;;;4155608;28;20209;-77
2021/12/25 02:41:12;;;;;;;8.02;6.85;;;-2.60;98.30;;;;;;4154129;28;20261;-77
2021/12/25 02:43:15;;;;;;;8.63;7.18;;;-2.60;98.30;;;;;;4165779;28;20217;-77
2021/12/25 02:45:19;;;;;;;9.00;7.10;;;-2.60;98.30;;;;;;4155806;28;20266;-77
2021/12/25 02:47:22;;;;;;;6.93;6.22;;;-2.50;98.30;;;;;;4148295;28;20203;-77
2021/12/25 02:49:25;;;;;;;9.70;6.82;;;-2.60;98.30;;;;;;4162113;28;20238;-77
2021/12/25 02:51:28;;;;;;;10.32;6.80;;;-2.60;98.30;;;;;;4156103;28;20285;-77
2021/12/25 02:53:33;;;;;;;6.70;5.97;;;-2.60;98.30;;;;;;4153301;28;20260;-77
2021/12/25 02:55:37;;;;;;;8.82;6.40;;;-2.70;98.30;;;;;;4152421;28;20219;-77
2021/12/25 02:57:40;;;;;;;10.82;6.55;;;-2.70;98.30;;;;;;4152246;28;20207;-77
2021/12/25 02:59:44;;;;;;;10.45;6.72;;;-2.70;98.30;;;;;;4156601;28;20205;-77
2021/12/25 03:01:47;;;;;;;7.57;6.05;;;-2.70;98.30;;;;;;4155177;28;20231;-77
2021/12/25 03:03:51;;;;;;;6.65;5.88;;;-2.70;98.30;;;;;;4158862;28;20215;-78
2021/12/25 03:05:54;;;;;;;6.80;5.65;;;-2.70;98.30;;;;;;4148105;28;20210;-77
2021/12/25 03:07:57;;;;;;;9.05;6.00;;;-2.70;98.30;;;;;;4150682;28;20204;-77
2021/12/25 03:10:01;;;;;;;8.40;5.82;;;-2.70;98.30;;;;;;4155404;28;20786;-77
2021/12/25 03:12:08;;;;;;;11.23;7.10;;;-2.70;98.30;;;;;;4154117;28;20238;-77
2021/12/25 03:14:24;;;;;;;10.40;7.20;;;-2.70;98.30;;;;;;4156805;28;20212;-77
2021/12/25 03:16:51;;;;;;;9.70;7.75;;;-2.70;98.30;;;;;;4153182;28;20266;-77
2021/12/25 03:19:26;;;;;;;8.32;6.72;;;-2.70;98.30;;;;;;4145435;28;20729;-77
2021/12/25 03:21:29;;;;;;;12.85;7.28;;;-2.70;98.30;;;;;;4159320;28;20238;-78
2021/12/25 03:23:33;;;;;;;8.38;6.90;;;-2.70;98.30;;;;;;4160905;28;20665;-78
2021/12/25 03:25:38;;;;;;;7.88;6.28;;;-2.70;98.30;;;;;;4152416;28;20585;-77
2021/12/25 03:27:43;;;;;;;8.43;6.85;;;-2.80;98.30;;;;;;4158830;28;20210;-77
2021/12/25 03:29:46;;;;;;;8.23;7.20;;;-2.80;98.30;;;;;;4161434;28;20229;-77
2021/12/25 03:32:13;;;;;;;9.98;5.75;;;-2.80;98.30;;;;;;4153123;28;20355;-77
2021/12/25 03:34:18;;;;;;;7.25;5.60;;;-2.80;98.30;;;;;;4150739;28;20224;-78
2021/12/25 03:36:22;;;;;;;9.10;5.70;;;-2.90;98.30;;;;;;4157620;28;20645;-77
2021/12/25 03:38:27;;;;;;;10.50;5.97;;;-2.90;98.30;;;;;;4159755;28;20245;-77
2021/12/25 03:40:30;;;;;;;8.82;5.32;;;-2.90;98.30;;;;;;4152585;28;20211;-77
2021/12/25 03:42:34;;;;;;;7.78;5.50;;;-2.80;98.30;;;;;;4148019;28;20235;-77
2021/12/25 03:44:37;;;;;;;7.65;5.75;;;-2.90;98.30;;;;;;4155736;28;20200;-77
2021/12/25 03:46:40;;;;;;;7.90;6.18;;;-2.80;98.30;;;;;;4160323;28;20211;-77
2021/12/25 03:49:05;;;;;;;7.05;5.70;;;-2.80;98.30;;;;;;4147506;28;20234;-77
2021/12/25 03:57:35;;;;;;;9.65;6.38;;;-2.90;98.30;;;;;;4153518;28;20219;-77
2021/12/25 03:58:26;;;;;;;9.50;5.78;;;-2.90;98.30;;;;;;4156969;28;20698;-77
2021/12/25 04:00:31;;;;;;;7.10;6.40;;;-3.00;98.30;;;;;;4158236;28;20316;-77
2021/12/25 04:02:42;;;;;;;6.55;5.55;;;-2.90;98.30;;;;;;4148854;28;20229;-77
2021/12/25 04:04:48;;;;;;;8.60;5.90;;;-2.90;98.30;;;;;;4146538;28;20219;-77
2021/12/25 04:06:59;;;;;;;10.00;6.07;;;-2.90;98.30;;;;;;4155791;28;20294;-77
2021/12/25 04:09:10;;;;;;;9.13;5.90;;;-3.00;98.30;;;;;;4148425;28;20203;-77
2021/12/25 04:11:25;;;;;;;7.47;5.90;;;-3.00;98.30;;;;;;4155077;28;20214;-77
2021/12/25 04:13:29;;;;;;;10.25;6.35;;;-3.00;98.30;;;;;;4143195;28;20212;-77
2021/12/25 04:15:33;;;;;;;6.68;5.30;;;-3.00;98.30;;;;;;4158017;28;20686;-77
2021/12/25 04:17:36;;;;;;;8.00;5.95;;;-3.00;98.30;;;;;;4156670;28;20214;-77
2021/12/25 04:19:39;;;;;;;7.60;6.07;;;-3.00;98.30;;;;;;4156958;28;20243;-77
2021/12/25 04:21:50;;;;;;;10.88;5.95;;;-3.00;98.30;;;;;;4153791;28;20243;-77
2021/12/25 04:23:52;;;;;;;6.50;5.63;;;-3.00;98.30;;;;;;4156614;28;20199;-77
2021/12/25 04:25:57;;;;;;;6.88;5.55;;;-3.00;98.30;;;;;;4155415;28;20630;-77
2021/12/25 04:28:07;;;;;;;7.07;5.95;;;-3.00;98.30;;;;;;4155176;28;20212;-77
2021/12/25 04:30:30;;;;;;;10.25;5.60;;;-3.00;98.30;;;;;;4148101;28;20230;-77
2021/12/25 04:33:19;;;;;;;7.28;5.60;;;-3.00;98.30;;;;;;4151903;28;20241;-78
2021/12/25 04:49:47;;;;;;;7.20;4.85;;;-3.10;98.30;;;;;;4147809;28;20574;-77
2021/12/25 05:03:48;;;;;;;7.13;5.78;;;-3.20;98.30;;;;;;4154478;28;20215;-77
2021/12/25 05:05:52;;;;;;;7.15;5.93;;;-3.20;98.30;;;;;;4155006;28;20211;-77
2021/12/25 05:07:56;;;;;;;9.10;6.40;;;-3.20;98.30;;;;;;4154056;28;20207;-77
2021/12/25 05:09:59;;;;;;;7.70;5.90;;;-3.10;98.30;;;;;;4145364;28;20261;-77
2021/12/25 05:12:02;;;;;;;7.97;6.20;;;-3.20;98.30;;;;;;4147085;28;20227;-77
2021/12/25 05:14:05;;;;;;;9.18;5.97;;;-3.10;98.30;;;;;;4150867;28;20368;-77
2021/12/25 05:16:08;;;;;;;10.25;6.30;;;-3.10;98.30;;;;;;4157307;28;20202;-77
2021/12/25 05:18:11;;;;;;;6.30;5.70;;;-3.10;98.30;;;;;;4155273;28;20309;-77
2021/12/25 05:20:15;;;;;;;8.43;6.22;;;-3.10;98.30;;;;;;4154340;28;20218;-77
2021/12/25 05:22:18;;;;;;;7.40;6.60;;;-3.30;98.30;;;;;;4151926;28;20239;-77
2021/12/25 05:24:21;;;;;;;6.90;6.28;;;-3.20;98.30;;;;;;4159760;28;20215;-77
2021/12/25 05:26:24;;;;;;;7.28;6.55;;;-3.30;98.30;;;;;;4155088;28;20742;-77
2021/12/25 05:28:35;;;;;;;6.97;5.82;;;-3.30;98.30;;;;;;4147553;28;20297;-77
2021/12/25 05:30:40;;;;;;;6.65;5.95;;;-3.30;98.30;;;;;;4144061;28;20238;-77
2021/12/25 05:32:43;;;;;;;8.25;5.95;;;-3.30;98.30;;;;;;4157376;28;20596;-77
2021/12/25 05:34:47;;;;;;;7.85;6.70;;;-3.30;98.30;;;;;;4147579;28;20286;-77
2021/12/25 05:36:52;;;;;;;8.23;6.95;;;-3.30;98.30;;;;;;4145782;28;20212;-78
2021/12/25 05:38:57;;;;;;;7.80;6.30;;;-3.20;98.30;;;;;;4157227;28;20199;-77
2021/12/25 05:41:00;;;;;;;7.53;6.35;;;-3.20;98.30;;;;;;4154276;28;20210;-77
2021/12/25 05:43:03;;;;;;;6.97;5.95;;;-3.20;98.30;;;;;;4145430;28;20208;-77
2021/12/25 05:45:08;;;;;;;8.60;6.40;;;-3.20;98.30;;;;;;4155513;28;20223;-77
2021/12/25 05:47:11;;;;;;;10.95;6.95;;;-3.20;98.30;;;;;;4152082;28;20260;-77
2021/12/25 05:49:14;;;;;;;10.13;7.25;;;-3.20;98.30;;;;;;4160311;28;20222;-77
2021/12/25 05:51:18;;;;;;;9.70;6.60;;;-3.20;98.30;;;;;;4149819;28;20228;-77
2021/12/25 05:53:23;;;;;;;7.78;6.70;;;-3.30;98.30;;;;;;4148848;28;20204;-77
2021/12/25 05:55:26;;;;;;;12.63;7.30;;;-3.30;98.30;;;;;;4144235;28;20218;-78
2021/12/25 05:57:29;;;;;;;8.98;6.70;;;-3.30;98.30;;;;;;4149299;28;20250;-77
2021/12/25 05:59:32;;;;;;;9.15;7.05;;;-3.30;98.30;;;;;;4151319;28;20211;-78
2021/12/25 06:01:35;;;;;;;7.15;6.15;;;-3.20;98.30;;;;;;4151631;28;20235;-77
2021/12/25 06:03:38;;;;;;;9.45;6.93;;;-3.30;98.30;;;;;;4146642;28;20290;-77
2021/12/25 06:05:41;;;;;;;12.55;7.07;;;-3.30;98.30;;;;;;4153364;28;20234;-78
2021/12/25 06:07:44;;;;;;;9.40;7.63;;;-3.30;98.30;;;;;;4155143;28;20211;-77
2021/12/25 06:09:48;;;;;;;8.70;6.97;;;-3.30;98.30;;;;;;4155062;28;20602;-77
2021/12/25 06:11:51;;;;;;;7.97;7.00;;;-3.30;98.30;;;;;;4153755;28;20578;-77
2021/12/25 06:14:05;;;;;;;8.95;6.55;;;-3.30;98.30;;;;;;4148821;28;20904;-78
2021/12/25 06:16:08;;;;;;;11.13;7.50;;;-3.30;98.30;;;;;;4147159;28;20558;-77
2021/12/25 06:18:11;;;;;;;7.60;6.22;;;-3.30;98.30;;;;;;4152544;28;20270;-78
2021/12/25 06:20:15;;;;;;;9.65;6.55;;;-3.30;98.30;;;;;;4147148;28;20215;-78
2021/12/25 06:22:18;;;;;;;11.40;8.23;;;-3.30;98.30;;;;;;4157710;28;20237;-77
2021/12/25 06:24:22;;;;;;;10.43;8.35;;;-3.30;98.30;;;;;;4147160;28;20216;-77
2021/12/25 06:26:27;;;;;;;9.10;7.82;;;-3.40;98.30;;;;;;4157705;28;20210;-78
2021/12/25 06:28:30;;;;;;;10.35;7.78;;;-3.40;98.30;;;;;;4145194;28;20865;-77
2021/12/25 06:30:33;;;;;;;7.63;6.70;;;-3.30;98.30;;;;;;4146126;28;20572;-77
2021/12/25 06:32:36;;;;;;;9.63;7.65;;;-3.30;98.30;;;;;;4153679;28;20310;-77
2021/12/25 06:34:39;;;;;;;11.38;7.80;;;-3.30;98.30;;;;;;4149326;28;20216;-77
2021/12/25 06:36:42;;;;;;;12.18;7.82;;;-3.30;98.30;;;;;;4155513;28;20265;-77
2021/12/25 06:38:45;;;;;;;8.85;6.82;;;-3.30;98.30;;;;;;4145497;28;20203;-77
2021/12/25 06:40:48;;;;;;;10.32;6.80;;;-3.30;98.30;;;;;;4154139;28;20273;-77
2021/12/25 06:42:53;;;;;;;8.50;6.50;;;-3.40;98.30;;;;;;4154256;28;20289;-77
2021/12/25 06:44:56;;;;;;;10.18;6.85;;;-3.40;98.30;;;;;;4143544;28;20690;-77
2021/12/25 06:47:00;;;;;;;19.60;12.13;;;-3.50;98.30;;;;;;4152989;28;20573;-77
2021/12/25 06:49:04;;;;;;;24.58;16.95;;;-3.60;98.30;;;;;;4149034;28;20207;-77
2021/12/25 06:51:07;;;;;;;18.83;14.52;;;-3.70;98.30;;;;;;4144557;28;20220;-77
2021/12/25 06:53:10;;;;;;;13.23;10.07;;;-3.60;98.30;;;;;;4150651;28;20204;-77
2021/12/25 06:55:14;;;;;;;12.00;8.10;;;-3.70;98.30;;;;;;4145975;28;20233;-77
2021/12/25 06:57:17;;;;;;;9.18;7.90;;;-3.70;98.30;;;;;;4151453;28;20207;-77
2021/12/25 06:59:22;;;;;;;10.18;8.25;;;-3.80;98.30;;;;;;4145351;28;20207;-77
2021/12/25 07:01:25;;;;;;;9.45;7.63;;;-3.80;98.30;;;;;;4143936;28;20236;-77
2021/12/25 07:03:28;;;;;;;12.13;7.20;;;-3.70;98.30;;;;;;4149862;28;20207;-77
2021/12/25 07:05:31;;;;;;;9.60;7.40;;;-3.70;98.30;;;;;;4148787;28;20569;-78
2021/12/25 07:07:34;;;;;;;8.43;6.60;;;-3.80;98.30;;;;;;4149827;28;20211;-77
2021/12/25 07:09:37;;;;;;;7.40;6.30;;;-3.80;98.30;;;;;;4147390;28;20216;-77
2021/12/25 07:11:42;;;;;;;8.20;6.97;;;-3.80;98.30;;;;;;4151200;28;20265;-77
2021/12/25 07:13:46;;;;;;;9.13;7.18;;;-3.80;98.30;;;;;;4151824;28;20214;-78
2021/12/25 07:15:50;;;;;;;9.85;7.32;;;-3.80;98.30;;;;;;4150309;28;20257;-77
2021/12/25 07:17:53;;;;;;;11.48;6.82;;;-3.90;98.30;;;;;;4151087;28;20199;-76
2021/12/25 07:19:56;;;;;;;8.05;6.72;;;-4.00;98.30;;;;;;4156770;28;20276;-77
2021/12/25 07:21:59;;;;;;;8.40;6.60;;;-4.00;98.30;;;;;;4150639;28;20236;-78
2021/12/25 07:24:03;;;;;;;10.32;8.50;;;-3.90;98.30;;;;;;4147460;28;20212;-77
2021/12/25 07:26:06;;;;;;;8.57;6.80;;;-4.00;98.30;;;;;;4150993;28;20206;-77
2021/12/25 07:28:09;;;;;;;8.88;7.25;;;-4.10;98.30;;;;;;4160588;28;20207;-78
2021/12/25 07:30:13;;;;;;;7.88;6.97;;;-4.10;98.30;;;;;;4152396;28;20211;-77
2021/12/25 07:32:17;;;;;;;8.57;6.50;;;-4.00;98.30;;;;;;4156492;28;20227;-77
2021/12/25 07:34:20;;;;;;;12.82;7.30;;;-3.90;98.30;;;;;;4150265;28;20586;-77
2021/12/25 07:36:23;;;;;;;8.43;6.85;;;-3.90;98.30;;;;;;4150341;28;20517;-77
2021/12/25 07:38:26;;;;;;;8.50;6.53;;;-3.90;98.30;;;;;;4139887;28;20216;-77
2021/12/25 07:40:30;;;;;;;9.20;6.00;;;-3.80;98.30;;;;;;4148023;28;20294;-78
2021/12/25 07:42:33;;;;;;;7.15;5.82;;;-3.90;98.30;;;;;;4147479;28;20646;-77
2021/12/25 07:44:36;;;;;;;7.63;6.30;;;-3.80;98.30;;;;;;4150585;28;20298;-77
2021/12/25 07:46:39;;;;;;;10.40;6.50;;;-3.80;98.30;;;;;;4154046;28;20208;-77
2021/12/25 07:48:45;;;;;;;10.10;7.10;;;-3.90;98.30;;;;;;4151165;28;20211;-77
2021/12/25 07:50:49;;;;;;;7.35;6.30;;;-3.90;98.30;;;;;;4154406;28;20219;-77
2021/12/25 07:52:51;;;;;;;8.30;6.53;;;-3.90;98.30;;;;;;4150682;28;20326;-77
2021/12/25 07:54:54;;;;;;;8.50;6.80;;;-3.90;98.30;;;;;;4147223;28;20208;-77
2021/12/25 07:56:57;;;;;;;8.25;7.22;;;-3.80;98.30;;;;;;4151735;28;20215;-77
2021/12/25 07:59:00;;;;;;;9.35;7.03;;;-3.70;98.30;;;;;;4157723;28;20219;-77
2021/12/25 08:01:03;;;;;;;7.50;6.78;;;-3.60;98.30;;;;;;4149150;28;20199;-77
2021/12/25 08:03:07;;;;;;;8.68;6.63;;;-3.50;98.30;;;;;;4147602;28;20200;-77
2021/12/25 08:05:12;;;;;;;8.57;7.13;;;-3.40;98.30;;;;;;4151451;28;20912;-77
2021/12/25 08:07:15;;;;;;;49.20;36.38;;;-3.20;98.30;;;;;;4153261;28;20208;-77
2021/12/25 08:09:27;;;;;;;48.65;34.55;;;-2.90;98.30;;;;;;4148707;28;20210;-77
2021/12/25 08:11:31;;;;;;;107.30;69.40;;;-2.90;98.30;;;;;;4149077;28;20235;-77
2021/12/25 08:13:34;;;;;;;53.10;35.75;;;-2.90;98.30;;;;;;4153199;28;20662;-77
2021/12/25 08:15:37;;;;;;;22.23;18.08;;;-2.80;98.30;;;;;;4155005;28;20203;-77
2021/12/25 08:17:40;;;;;;;18.73;12.98;;;-2.70;98.30;;;;;;4152157;28;20215;-77
2021/12/25 08:19:43;;;;;;;12.75;10.18;;;-2.70;98.30;;;;;;4153918;28;20206;-77
2021/12/25 08:21:47;;;;;;;12.00;9.30;;;-2.50;98.30;;;;;;4150666;28;20243;-77
2021/12/25 08:23:50;;;;;;;10.45;9.25;;;-2.40;98.30;;;;;;4155335;28;20334;-77
2021/12/25 08:25:53;;;;;;;10.43;8.05;;;-2.40;98.30;;;;;;4160676;28;20225;-77
2021/12/25 08:27:56;;;;;;;13.40;10.10;;;-2.40;98.30;;;;;;4149291;28;20217;-77
2021/12/25 08:29:59;;;;;;;14.90;11.75;;;-2.30;98.30;;;;;;4151549;28;20208;-77
2021/12/25 08:32:02;;;;;;;17.40;14.30;;;-2.30;98.30;;;;;;4145567;28;20234;-77
2021/12/25 08:34:05;;;;;;;15.48;12.77;;;-2.20;98.30;;;;;;4154708;28;20214;-78
2021/12/25 08:36:08;;;;;;;15.95;12.80;;;-2.10;98.30;;;;;;4148207;28;20208;-77
2021/12/25 08:38:14;;;;;;;13.10;10.90;;;-2.00;98.30;;;;;;4151650;28;20214;-77
2021/12/25 08:40:17;;;;;;;11.90;10.15;;;-1.90;98.30;;;;;;4148011;28;20660;-77
2021/12/25 08:42:21;;;;;;;17.30;10.38;;;-1.80;98.30;;;;;;4145440;28;20230;-77
2021/12/25 08:44:33;;;;;;;12.35;9.38;;;-1.90;98.30;;;;;;4154063;28;20203;-78
2021/12/25 08:46:45;;;;;;;204.77;139.50;;;-1.80;98.30;;;;;;4141210;28;20216;-78
2021/12/25 08:48:48;;;;;;;169.52;110.78;;;-1.60;98.30;;;;;;4148218;28;20671;-77
2021/12/25 08:50:54;;;;;;;40.40;27.58;;;-1.40;98.30;;;;;;4145677;28;20254;-77
2021/12/25 08:52:57;;;;;;;23.42;17.42;;;-1.20;98.30;;;;;;4149602;28;20232;-77
2021/12/25 08:55:01;;;;;;;23.13;17.63;;;-1.20;98.30;;;;;;4145886;28;20281;-78
2021/12/25 08:57:06;;;;;;;22.92;16.60;;;-1.10;98.30;;;;;;4148314;28;20239;-78
2021/12/25 08:59:09;;;;;;;16.20;13.38;;;-1.00;98.30;;;;;;4148116;28;20552;-77
2021/12/25 09:01:12;;;;;;;16.15;13.20;;;-0.90;98.30;;;;;;4150126;28;20214;-78
2021/12/25 09:03:15;;;;;;;15.70;13.57;;;-0.70;98.30;;;;;;4144825;28;21174;-78
2021/12/25 09:05:19;;;;;;;17.45;12.63;;;-0.60;98.30;;;;;;4145612;28;20204;-78
2021/12/25 09:07:22;;;;;;;16.67;12.80;;;-0.50;98.30;;;;;;4150755;28;20216;-76
2021/12/25 09:09:25;;;;;;;15.32;13.02;;;-0.40;98.30;;;;;;4146584;28;20217;-76
2021/12/25 09:11:29;;;;;;;16.77;13.00;;;-0.30;98.30;;;;;;4149140;28;20302;-76
2021/12/25 09:13:33;;;;;;;14.70;12.80;;;-0.30;98.30;;;;;;4150478;28;20237;-76
2021/12/25 09:15:36;;;;;;;18.40;14.43;;;-0.30;98.30;;;;;;4145186;28;20310;-75
2021/12/25 09:17:39;;;;;;;45.22;28.83;;;-0.20;98.30;;;;;;4138394;28;20302;-76
2021/12/25 09:19:43;;;;;;;66.00;43.10;;;0.60;98.30;;;;;;4147716;28;20199;-76
2021/12/25 09:21:47;;;;;;;79.20;45.88;;;1.20;98.30;;;;;;4149203;28;20300;-76
2021/12/25 09:23:50;;;;;;;20.20;13.60;;;1.60;98.30;;;;;;4149246;28;20210;-76
2021/12/25 09:25:53;;;;;;;13.68;8.88;;;1.20;98.30;;;;;;4149606;28;20583;-76
2021/12/25 09:27:58;;;;;;;12.45;8.27;;;0.80;98.30;;;;;;4152634;28;20221;-76
2021/12/25 09:30:01;;;;;;;10.10;9.07;;;0.70;98.30;;;;;;4155434;28;20199;-76
2021/12/25 09:32:05;;;;;;;15.80;10.85;;;0.60;98.30;;;;;;4146335;28;20227;-76
2021/12/25 09:34:09;;;;;;;10.30;9.15;;;0.70;98.30;;;;;;4144377;28;20281;-76
2021/12/25 09:36:13;;;;;;;15.18;10.20;;;0.90;98.30;;;;;;4151937;28;20627;-76
2021/12/25 09:38:15;;;;;;;13.93;9.90;;;1.10;98.30;;;;;;4159329;28;20551;-76
2021/12/25 09:40:19;;;;;;;27.67;20.42;;;1.20;98.30;;;;;;4143865;28;20310;-76
2021/12/25 09:42:24;;;;;;;25.52;19.42;;;1.30;98.30;;;;;;4147319;28;20262;-76
2021/12/25 09:44:28;;;;;;;18.05;13.77;;;1.40;98.30;;;;;;4141408;28;20592;-76
2021/12/25 09:46:32;;;;;;;16.77;11.50;;;1.50;98.30;;;;;;4148478;28;20237;-75
2021/12/25 09:48:35;;;;;;;14.40;10.70;;;1.60;98.30;;;;;;4146173;28;20352;-76
2021/12/25 09:50:42;;;;;;;13.55;11.07;;;1.70;98.30;;;;;;4142084;28;20655;-76
2021/12/25 09:52:45;;;;;;;14.88;10.27;;;1.90;98.30;;;;;;4142367;28;20230;-75
2021/12/25 09:54:48;;;;;;;11.38;10.18;;;1.80;98.30;;;;;;4153297;28;20297;-75
2021/12/25 09:56:54;;;;;;;14.43;10.95;;;1.90;98.30;;;;;;4151314;28;20214;-75
2021/12/25 09:58:57;;;;;;;11.43;9.80;;;2.10;98.30;;;;;;4141318;28;20679;-75
2021/12/25 10:01:02;;;;;;;11.23;8.85;;;2.20;98.30;;;;;;4154075;28;20613;-76
2021/12/25 10:03:05;;;;;;;15.32;12.50;;;2.30;98.30;;;;;;4153544;28;20225;-74
2021/12/25 10:05:10;;;;;;;14.50;11.90;;;2.40;98.30;;;;;;4146909;28;20215;-75
2021/12/25 10:07:19;;;;;;;17.98;12.57;;;2.20;98.30;;;;;;4151627;28;20238;-75
2021/12/25 10:09:24;;;;;;;14.00;11.45;;;2.10;98.30;;;;;;4151145;28;20585;-75
2021/12/25 10:11:30;;;;;;;15.82;11.30;;;2.10;98.30;;;;;;4152897;28;20632;-74
2021/12/25 10:13:36;;;;;;;17.35;11.85;;;2.20;98.30;;;;;;4156427;28;20632;-76
2021/12/25 10:15:39;;;;;;;13.80;11.57;;;2.40;98.30;;;;;;4150507;28;20223;-75
2021/12/25 10:17:50;;;;;;;12.60;10.48;;;2.90;98.30;;;;;;4158387;28;20214;-74
2021/12/25 10:20:12;;;;;;;13.82;10.27;;;3.00;98.30;;;;;;4151758;28;20218;-74
2021/12/25 10:22:15;;;;;;;12.50;10.25;;;3.10;98.30;;;;;;4145358;28;20274;-74
2021/12/25 10:24:26;;;;;;;12.57;9.75;;;3.40;98.30;;;;;;4158069;28;20241;-75
2021/12/25 10:26:29;;;;;;;11.70;9.83;;;3.50;98.30;;;;;;4154464;28;20214;-75
2021/12/25 10:28:34;;;;;;;11.20;9.90;;;3.50;98.30;;;;;;4153663;28;20537;-75
2021/12/25 10:30:50;;;;;;;13.10;10.60;;;3.60;98.30;;;;;;4155955;28;21016;-75
2021/12/25 10:32:54;;;;;;;12.03;10.40;;;3.90;98.30;;;;;;4157301;28;20502;-75
2021/12/25 10:34:57;;;;;;;11.20;10.00;;;4.10;98.30;;;;;;4160352;28;20467;-75
2021/12/25 10:37:07;;;;;;;15.90;9.83;;;4.20;98.00;;;;;;4159574;28;20478;-75
2021/12/25 10:39:12;;;;;;;11.10;9.80;;;4.30;97.90;;;;;;4148005;28;20470;-75
2021/12/25 10:41:20;;;;;;;10.07;9.03;;;4.70;97.40;;;;;;4153747;28;20455;-75
2021/12/25 10:43:23;;;;;;;11.70;9.00;;;4.90;96.90;;;;;;4157898;28;20963;-75
2021/12/25 10:45:28;;;;;;;43.07;27.20;;;5.10;96.20;;;;;;4153857;28;20490;-75
2021/12/25 10:47:32;;;;;;;27.03;19.03;;;5.30;97.00;;;;;;4153699;28;20496;-76
2021/12/25 10:49:39;;;;;;;20.90;13.10;;;5.80;96.10;;;;;;4145561;28;20546;-75
2021/12/25 10:51:42;;;;;;;13.30;10.50;;;5.90;95.00;;;;;;4153551;28;20464;-76
2021/12/25 10:53:52;;;;;;;16.10;10.00;;;6.00;94.70;;;;;;4152382;28;20513;-75
2021/12/25 10:56:08;;;;;;;13.30;9.80;;;6.00;93.40;;;;;;4152128;28;20478;-75
2021/12/25 10:58:19;;;;;;;10.40;8.80;;;5.80;93.40;;;;;;4155065;28;21047;-75
2021/12/25 11:00:29;;;;;;;13.33;8.47;;;5.70;93.70;;;;;;4153776;28;20472;-75
2021/12/25 11:02:38;;;;;;;10.80;7.77;;;5.70;93.50;;;;;;4162834;28;20495;-75
2021/12/25 11:04:43;;;;;;;9.70;7.70;;;5.90;92.00;;;;;;4155085;28;20548;-76
2021/12/25 11:06:46;;;;;;;11.53;8.70;;;6.10;92.20;;;;;;4154712;28;20468;-77
2021/12/25 11:08:49;;;;;;;97.40;55.27;;;6.10;92.80;;;;;;4156830;28;20472;-75
2021/12/25 11:10:54;;;;;;;83.10;56.03;;;6.30;92.80;;;;;;4163164;28;20966;-76
2021/12/25 11:12:57;;;;;;;16.90;11.53;;;6.60;91.70;;;;;;4145446;28;20498;-76
2021/12/25 11:15:14;;;;;;;7.53;6.43;;;6.40;90.40;;;;;;4164248;28;20489;-75
2021/12/25 11:17:32;;;;;;;10.33;6.43;;;6.30;90.30;;;;;;4158821;28;20476;-75
2021/12/25 11:19:57;;;;;;;9.57;7.20;;;6.50;89.30;;;;;;4154680;28;20792;-76
2021/12/25 11:22:00;;;;;;;6.80;5.90;;;6.10;89.20;;;;;;4154489;28;20501;-75
2021/12/25 11:24:14;;;;;;;10.27;5.70;;;6.00;89.80;;;;;;4156177;28;20479;-77
2021/12/25 11:26:17;;;;;;;8.60;6.13;;;5.80;90.10;;;;;;4146970;28;20475;-75
2021/12/25 11:28:20;;;;;;;8.50;6.30;;;5.80;90.50;;;;;;4158785;28;20479;-75
2021/12/25 11:30:26;;;;;;;6.60;5.90;;;5.90;89.20;;;;;;4158839;28;20478;-75
2021/12/25 11:32:29;;;;;;;12.17;7.10;;;6.00;90.00;;;;;;4155001;28;20996;-75
2021/12/25 11:34:32;;;;;;;8.53;6.17;;;5.90;88.80;;;;;;4151712;28;20542;-75
2021/12/25 11:36:39;;;;;;;10.87;5.90;;;6.20;89.40;;;;;;4159107;28;20470;-76